createdAt,value
2022-12-31T00:01:54.898Z,1.60
2022-12-31T00:04:24.240Z,3.63
2022-12-31T00:06:53.536Z,1.73
2022-12-31T00:09:24.532Z,1.75
2022-12-31T00:11:53.777Z,1.38
2022-12-31T00:14:23.102Z,1.67
2022-12-31T00:16:52.429Z,1.60
2022-12-31T00:19:21.695Z,2.30
2022-12-31T00:21:50.961Z,2.50
2022-12-31T00:24:20.620Z,1.95
2022-12-31T00:26:49.941Z,3.03
2022-12-31T00:29:19.241Z,1.83
2022-12-31T00:31:48.532Z,1.40
2022-12-31T00:34:17.775Z,1.20
2022-12-31T00:36:47.014Z,1.30
2022-12-31T00:39:16.307Z,2.50
2022-12-31T00:41:46.176Z,2.00
2022-12-31T00:44:15.421Z,1.13
2022-12-31T00:49:13.701Z,1.23
2022-12-31T00:51:43.131Z,2.40
2022-12-31T00:54:12.380Z,1.85
2022-12-31T00:56:41.680Z,2.50
2022-12-31T00:59:10.956Z,2.28
2022-12-31T01:01:41.719Z,2.00
2022-12-31T01:04:16.121Z,1.30
2022-12-31T01:06:46.068Z,2.20
2022-12-31T01:09:16.254Z,3.00
2022-12-31T01:11:45.742Z,3.20
2022-12-31T01:14:16.139Z,2.10
2022-12-31T01:16:50.421Z,2.75
2022-12-31T01:19:24.374Z,1.50
2022-12-31T01:21:54.040Z,2.95
2022-12-31T01:24:23.568Z,2.78
2022-12-31T01:26:56.034Z,1.73
2022-12-31T01:29:25.314Z,3.25
2022-12-31T01:31:54.529Z,0.88
2022-12-31T01:34:23.886Z,1.13
2022-12-31T01:36:53.290Z,2.28
2022-12-31T01:39:22.526Z,1.65
2022-12-31T01:41:51.779Z,2.15
2022-12-31T01:44:30.312Z,2.50
2022-12-31T01:47:01.476Z,1.00
2022-12-31T01:49:42.924Z,1.85
2022-12-31T01:52:18.166Z,1.20
2022-12-31T01:54:50.533Z,1.17
2022-12-31T01:59:49.006Z,0.85
2022-12-31T02:02:18.599Z,0.63
2022-12-31T02:04:47.999Z,0.60
2022-12-31T02:07:17.246Z,0.65
2022-12-31T02:09:46.492Z,0.60
2022-12-31T02:12:15.785Z,2.00
2022-12-31T02:14:45.016Z,0.60
2022-12-31T02:17:22.683Z,0.40
2022-12-31T02:19:51.886Z,0.45
2022-12-31T02:22:29.269Z,0.70
2022-12-31T02:25:17.184Z,0.73
2022-12-31T02:28:05.061Z,1.55
2022-12-31T02:30:35.067Z,0.40
2022-12-31T02:33:04.246Z,0.52
2022-12-31T02:35:36.190Z,0.85
2022-12-31T02:38:13.837Z,0.30
2022-12-31T02:40:43.111Z,0.30
2022-12-31T02:43:12.389Z,0.95
2022-12-31T02:45:44.509Z,0.50
2022-12-31T02:48:13.702Z,0.35
2022-12-31T02:50:58.044Z,0.60
2022-12-31T02:53:36.326Z,0.52
2022-12-31T02:56:23.448Z,0.45
2022-12-31T02:59:05.086Z,0.68
2022-12-31T03:01:49.980Z,0.33
2022-12-31T03:04:32.324Z,0.35
2022-12-31T03:07:09.249Z,0.70
2022-12-31T03:09:39.111Z,0.70
2022-12-31T03:12:22.298Z,0.57
2022-12-31T03:14:51.605Z,0.65
2022-12-31T03:17:20.830Z,0.55
2022-12-31T03:20:02.788Z,1.08
2022-12-31T03:22:31.999Z,1.30
2022-12-31T03:25:18.869Z,1.40
2022-12-31T03:27:48.883Z,0.80
2022-12-31T03:30:20.148Z,1.60
2022-12-31T03:32:50.128Z,1.25
2022-12-31T03:35:20.628Z,3.33
2022-12-31T03:37:50.643Z,2.67
2022-12-31T03:40:20.691Z,1.75
2022-12-31T03:42:49.934Z,0.90
2022-12-31T03:45:19.226Z,2.97
2022-12-31T03:47:49.800Z,0.80
2022-12-31T03:50:20.048Z,0.80
2022-12-31T03:52:49.688Z,1.00
2022-12-31T03:55:18.915Z,0.90
2022-12-31T03:57:49.023Z,0.95
2022-12-31T04:00:20.325Z,1.27
2022-12-31T04:02:50.087Z,0.80
2022-12-31T04:05:19.891Z,0.90
2022-12-31T04:07:49.370Z,0.70
2022-12-31T04:10:19.344Z,3.67
2022-12-31T04:12:48.707Z,1.73
2022-12-31T04:15:19.820Z,2.38
2022-12-31T04:17:49.347Z,2.65
2022-12-31T04:20:19.172Z,1.70
2022-12-31T04:22:48.445Z,2.75
2022-12-31T04:25:17.733Z,3.63
2022-12-31T04:27:46.973Z,2.53
2022-12-31T04:30:16.392Z,1.58
2022-12-31T04:32:45.739Z,2.28
2022-12-31T04:35:15.072Z,2.92
2022-12-31T04:37:44.299Z,2.47
2022-12-31T04:40:13.698Z,1.23
2022-12-31T04:42:42.964Z,4.05
2022-12-31T04:45:12.548Z,1.02
2022-12-31T04:47:41.799Z,1.20
2022-12-31T04:50:11.060Z,2.33
2022-12-31T04:52:42.958Z,4.32
2022-12-31T04:55:12.549Z,0.60
2022-12-31T04:57:41.909Z,2.75
2022-12-31T05:00:11.458Z,1.25
2022-12-31T05:02:40.935Z,1.05
2022-12-31T05:05:10.616Z,2.40
2022-12-31T05:07:39.915Z,2.28
2022-12-31T05:10:09.518Z,3.67
2022-12-31T05:12:38.739Z,4.90
2022-12-31T05:15:08.308Z,4.72
2022-12-31T05:17:37.627Z,1.33
2022-12-31T05:20:07.123Z,1.13
2022-12-31T05:22:36.405Z,0.68
2022-12-31T05:25:05.786Z,1.30
2022-12-31T05:27:35.014Z,6.53
2022-12-31T05:30:04.253Z,1.17
2022-12-31T05:32:33.614Z,1.98
2022-12-31T05:35:02.844Z,2.65
2022-12-31T05:37:32.641Z,2.40
2022-12-31T05:40:02.353Z,1.45
2022-12-31T05:42:31.614Z,3.28
2022-12-31T05:45:00.849Z,1.55
2022-12-31T05:47:30.095Z,3.10
2022-12-31T05:50:02.059Z,2.63
2022-12-31T05:52:31.546Z,0.98
2022-12-31T05:55:00.874Z,1.15
2022-12-31T05:57:30.171Z,3.17
2022-12-31T05:59:59.442Z,3.42
2022-12-31T06:02:28.826Z,2.65
2022-12-31T06:04:58.060Z,1.83
2022-12-31T06:07:27.314Z,1.52
2022-12-31T06:09:56.698Z,1.02
2022-12-31T06:12:25.917Z,1.30
2022-12-31T06:14:55.242Z,5.18
2022-12-31T06:17:25.191Z,0.73
2022-12-31T06:19:54.490Z,3.78
2022-12-31T06:22:23.747Z,0.98
2022-12-31T06:24:54.012Z,0.85
2022-12-31T06:27:23.281Z,4.85
2022-12-31T06:29:52.491Z,0.85
2022-12-31T06:32:21.743Z,1.67
2022-12-31T06:34:51.059Z,5.50
2022-12-31T06:37:20.326Z,0.45
2022-12-31T06:39:49.599Z,2.75
2022-12-31T06:42:18.855Z,1.50
2022-12-31T06:44:48.203Z,0.80
2022-12-31T06:47:17.502Z,0.95
2022-12-31T06:49:46.744Z,4.70
2022-12-31T06:52:15.972Z,1.10
2022-12-31T06:54:45.388Z,1.92
2022-12-31T06:57:15.436Z,6.60
2022-12-31T06:59:44.902Z,2.15
2022-12-31T07:02:19.457Z,3.70
2022-12-31T07:05:10.059Z,1.15
2022-12-31T07:07:58.194Z,2.83
2022-12-31T07:10:36.279Z,3.88
2022-12-31T07:13:08.540Z,4.28
2022-12-31T07:18:21.585Z,4.75
2022-12-31T07:20:51.029Z,1.40
2022-12-31T07:23:20.537Z,3.40
2022-12-31T07:25:54.469Z,1.80
2022-12-31T07:28:37.208Z,2.08
2022-12-31T07:31:45.115Z,2.45
2022-12-31T07:34:25.514Z,1.30
2022-12-31T07:37:17.569Z,2.60
2022-12-31T07:40:05.678Z,2.75
2022-12-31T07:42:39.339Z,3.03
2022-12-31T07:45:17.416Z,1.92
2022-12-31T07:47:48.398Z,3.20
2022-12-31T07:50:19.600Z,6.07
2022-12-31T07:52:49.074Z,1.80
2022-12-31T07:55:18.591Z,3.22
2022-12-31T07:58:08.113Z,3.60
2022-12-31T08:00:37.403Z,2.03
2022-12-31T08:03:13.614Z,1.50
2022-12-31T08:05:45.569Z,1.98
2022-12-31T08:08:33.580Z,3.67
2022-12-31T08:11:11.228Z,3.92
2022-12-31T08:13:41.955Z,4.05
2022-12-31T08:16:14.701Z,4.63
2022-12-31T08:18:44.121Z,3.20
2022-12-31T08:21:19.541Z,1.67
2022-12-31T08:24:08.021Z,1.42
2022-12-31T08:26:39.475Z,1.35
2022-12-31T08:29:18.422Z,4.78
2022-12-31T08:31:57.965Z,3.03
2022-12-31T08:34:27.160Z,1.25
2022-12-31T08:37:14.091Z,0.88
2022-12-31T08:39:52.526Z,5.72
2022-12-31T08:42:42.014Z,1.15
2022-12-31T08:45:22.496Z,1.13
2022-12-31T08:48:12.005Z,2.08
2022-12-31T08:50:41.349Z,2.05
2022-12-31T08:53:10.807Z,4.25
2022-12-31T08:55:40.295Z,1.35
2022-12-31T08:58:27.590Z,3.10
2022-12-31T09:01:00.354Z,2.30
2022-12-31T09:03:40.733Z,0.82
2022-12-31T09:06:09.977Z,2.80
2022-12-31T09:08:48.095Z,2.10
2022-12-31T09:11:22.863Z,4.03
2022-12-31T09:13:55.848Z,1.92
2022-12-31T09:18:54.535Z,1.45
2022-12-31T09:21:23.890Z,1.25
2022-12-31T09:23:53.475Z,3.55
2022-12-31T09:26:34.943Z,2.90
2022-12-31T09:29:12.784Z,1.98
2022-12-31T09:31:53.919Z,3.65
2022-12-31T09:34:29.738Z,1.85
2022-12-31T09:37:19.299Z,3.05
2022-12-31T09:39:49.737Z,3.30
2022-12-31T09:42:42.276Z,2.75
2022-12-31T09:45:20.544Z,2.05
2022-12-31T09:48:09.743Z,2.13
2022-12-31T09:50:46.439Z,1.27
2022-12-31T09:53:27.292Z,2.45
2022-12-31T09:56:08.199Z,1.92
2022-12-31T09:58:56.380Z,1.65
2022-12-31T10:01:32.846Z,1.17
2022-12-31T10:04:14.349Z,1.85
2022-12-31T10:07:06.019Z,1.45
2022-12-31T10:09:54.125Z,2.85
2022-12-31T10:12:23.517Z,1.48
2022-12-31T10:15:07.305Z,2.90
2022-12-31T10:17:42.665Z,7.97
2022-12-31T10:20:25.385Z,3.17
2022-12-31T10:23:13.393Z,4.32
2022-12-31T10:25:53.549Z,3.35
2022-12-31T10:28:28.827Z,4.32
2022-12-31T10:31:05.530Z,3.13
2022-12-31T10:33:45.434Z,2.50
2022-12-31T10:36:21.528Z,2.15
2022-12-31T10:39:07.493Z,1.15
2022-12-31T10:41:55.223Z,2.67
2022-12-31T10:44:30.646Z,1.67
2022-12-31T10:47:06.075Z,3.58
2022-12-31T10:49:54.181Z,3.15
2022-12-31T10:52:42.141Z,11.43
2022-12-31T10:55:24.929Z,2.90
2022-12-31T10:58:12.797Z,1.60
2022-12-31T11:00:46.972Z,3.38
2022-12-31T11:03:30.746Z,3.30
2022-12-31T11:06:12.308Z,5.35
2022-12-31T11:08:44.601Z,2.83
2022-12-31T11:11:13.782Z,4.25
2022-12-31T11:13:46.033Z,3.55
2022-12-31T11:19:02.046Z,1.98
2022-12-31T11:21:49.856Z,2.28
2022-12-31T11:24:38.251Z,2.42
2022-12-31T11:27:26.084Z,6.15
2022-12-31T11:29:58.143Z,3.25
2022-12-31T11:32:30.378Z,4.38
2022-12-31T11:37:58.064Z,7.75
2022-12-31T11:40:30.328Z,2.35
2022-12-31T11:43:03.070Z,4.18
2022-12-31T11:45:51.230Z,2.28
2022-12-31T11:48:30.971Z,4.57
2022-12-31T11:51:13.237Z,5.07
2022-12-31T11:53:48.330Z,0.77
2022-12-31T11:56:21.575Z,5.47
2022-12-31T11:58:58.156Z,2.65
2022-12-31T12:01:36.085Z,6.53
2022-12-31T12:04:05.945Z,3.83
2022-12-31T12:06:35.611Z,2.35
2022-12-31T12:09:09.145Z,4.60
2022-12-31T12:11:40.776Z,2.75
2022-12-31T12:14:32.722Z,5.25
2022-12-31T12:17:05.199Z,3.60
2022-12-31T12:19:36.013Z,1.98
2022-12-31T12:22:23.818Z,3.25
2022-12-31T12:24:57.820Z,5.03
2022-12-31T12:27:30.082Z,3.08
2022-12-31T12:32:29.383Z,5.22
2022-12-31T12:34:58.688Z,5.38
2022-12-31T12:37:27.931Z,3.28
2022-12-31T12:40:00.935Z,1.80
2022-12-31T12:42:31.048Z,1.67
2022-12-31T12:45:23.415Z,5.78
2022-12-31T12:47:56.582Z,4.97
2022-12-31T12:50:35.366Z,3.42
2022-12-31T12:53:16.510Z,4.72
2022-12-31T12:56:04.678Z,3.13
2022-12-31T12:58:52.448Z,5.13
2022-12-31T13:01:39.850Z,3.67
2022-12-31T13:04:35.942Z,15.40
2022-12-31T13:07:17.615Z,15.35
2022-12-31T13:09:46.806Z,7.93
2022-12-31T13:12:28.271Z,5.05
2022-12-31T13:15:03.865Z,14.10
2022-12-31T13:20:26.054Z,5.90
2022-12-31T13:23:07.871Z,2.90
2022-12-31T13:25:57.544Z,3.60
2022-12-31T13:28:27.586Z,14.18
2022-12-31T13:31:08.489Z,8.68
2022-12-31T13:33:44.012Z,8.23
2022-12-31T13:36:17.961Z,3.33
2022-12-31T13:39:02.103Z,17.08
2022-12-31T13:41:41.623Z,5.28
2022-12-31T13:44:26.265Z,9.05
2022-12-31T13:47:02.020Z,6.60
2022-12-31T13:49:44.664Z,4.15
2022-12-31T13:52:32.719Z,3.92
2022-12-31T13:55:23.231Z,10.27
2022-12-31T13:57:55.281Z,4.13
2022-12-31T14:00:26.609Z,4.90
2022-12-31T14:02:59.459Z,3.70
2022-12-31T14:05:34.845Z,6.40
2022-12-31T14:08:05.686Z,6.68
2022-12-31T14:10:44.437Z,6.57
2022-12-31T14:13:35.029Z,7.18
2022-12-31T14:16:11.534Z,8.32
2022-12-31T14:18:49.272Z,9.00
2022-12-31T14:21:25.734Z,13.63
2022-12-31T14:24:04.115Z,6.15
2022-12-31T14:26:53.598Z,8.00
2022-12-31T14:29:29.010Z,8.30
2022-12-31T14:32:24.456Z,5.70
2022-12-31T14:34:53.660Z,6.93
2022-12-31T14:37:33.116Z,7.18
2022-12-31T14:40:05.131Z,4.30
2022-12-31T14:42:48.871Z,5.47
2022-12-31T14:45:33.596Z,4.38
2022-12-31T14:48:09.496Z,6.78
2022-12-31T14:50:39.272Z,5.30
2022-12-31T14:53:08.511Z,5.63
2022-12-31T14:55:39.098Z,3.95
2022-12-31T14:58:28.088Z,4.20
2022-12-31T15:00:59.367Z,8.88
2022-12-31T15:03:39.980Z,7.65
2022-12-31T15:06:17.685Z,14.57
2022-12-31T15:08:56.035Z,6.18
2022-12-31T15:11:34.413Z,6.18
2022-12-31T15:14:22.482Z,8.02
2022-12-31T15:17:00.588Z,6.25
2022-12-31T15:19:44.742Z,4.95
2022-12-31T15:22:23.368Z,5.35
2022-12-31T15:24:52.646Z,4.13
2022-12-31T15:27:42.339Z,4.43
2022-12-31T15:30:32.136Z,6.05
2022-12-31T15:33:03.843Z,5.22
2022-12-31T15:35:35.060Z,3.08
2022-12-31T15:38:20.554Z,7.18
2022-12-31T15:40:51.109Z,4.90
2022-12-31T15:43:29.768Z,3.92
2022-12-31T15:45:59.334Z,3.08
2022-12-31T15:48:35.149Z,4.53
2022-12-31T15:51:04.454Z,5.53
2022-12-31T15:53:45.279Z,8.52
2022-12-31T15:56:19.700Z,3.20
2022-12-31T15:58:50.028Z,5.70
2022-12-31T16:01:26.840Z,4.82
2022-12-31T16:04:14.822Z,3.63
2022-12-31T16:06:50.453Z,7.35
2022-12-31T16:09:27.204Z,3.95
2022-12-31T16:11:57.520Z,4.22
2022-12-31T16:14:28.355Z,7.75
2022-12-31T16:17:01.685Z,8.52
2022-12-31T16:19:58.442Z,5.45
2022-12-31T16:22:29.426Z,2.70
2022-12-31T16:27:49.094Z,4.70
2022-12-31T16:30:22.886Z,7.38
2022-12-31T16:32:53.008Z,4.13
2022-12-31T16:35:40.543Z,5.07
2022-12-31T16:38:20.109Z,4.28
2022-12-31T16:41:09.296Z,10.95
2022-12-31T16:43:39.665Z,6.85
2022-12-31T16:46:14.751Z,4.03
2022-12-31T16:48:47.755Z,5.15
2022-12-31T16:51:20.607Z,8.25
2022-12-31T16:53:50.723Z,7.20
2022-12-31T16:56:32.778Z,5.07
2022-12-31T17:01:34.390Z,13.05
2022-12-31T17:04:06.890Z,4.68
2022-12-31T17:09:05.227Z,7.50
2022-12-31T17:11:39.464Z,6.80
2022-12-31T17:14:14.367Z,3.78
2022-12-31T17:17:04.184Z,7.03
2022-12-31T17:19:47.623Z,6.75
2022-12-31T17:22:32.901Z,4.20
2022-12-31T17:25:25.806Z,6.25
2022-12-31T17:28:00.958Z,4.68
2022-12-31T17:30:30.440Z,3.25
2022-12-31T17:33:03.782Z,2.83
2022-12-31T17:35:37.083Z,10.00
2022-12-31T17:38:24.629Z,5.75
2022-12-31T17:41:04.305Z,4.38
2022-12-31T17:43:35.397Z,4.68
2022-12-31T17:46:05.779Z,4.95
2022-12-31T17:48:34.992Z,5.25
2022-12-31T17:51:04.231Z,7.55
2022-12-31T17:53:33.471Z,3.28
2022-12-31T17:56:07.563Z,8.88
2022-12-31T17:58:39.795Z,7.85
2022-12-31T18:01:10.056Z,3.85
2022-12-31T18:03:39.383Z,4.88
2022-12-31T18:06:13.031Z,4.13
2022-12-31T18:08:45.731Z,5.53
2022-12-31T18:11:19.303Z,6.57
2022-12-31T18:13:48.918Z,4.13
2022-12-31T18:16:18.344Z,14.23
2022-12-31T18:18:47.624Z,4.65
2022-12-31T18:21:20.895Z,7.30
2022-12-31T18:23:51.012Z,2.88
2022-12-31T18:26:21.521Z,7.82
2022-12-31T18:28:51.190Z,7.40
2022-12-31T18:31:20.450Z,5.40
2022-12-31T18:33:50.040Z,7.30
2022-12-31T18:36:20.394Z,3.67
2022-12-31T18:38:49.601Z,6.75
2022-12-31T18:41:23.396Z,4.25
2022-12-31T18:43:52.836Z,11.98
2022-12-31T18:46:24.048Z,7.07
2022-12-31T18:48:53.447Z,6.80
2022-12-31T18:51:30.991Z,5.35
2022-12-31T18:54:01.134Z,4.65
2022-12-31T18:56:31.280Z,2.90
2022-12-31T18:59:02.555Z,6.45
2022-12-31T19:01:34.065Z,6.95
2022-12-31T19:04:05.376Z,6.43
2022-12-31T19:06:34.598Z,9.85
2022-12-31T19:09:06.370Z,4.43
2022-12-31T19:11:48.395Z,3.92
2022-12-31T19:14:19.150Z,7.18
2022-12-31T19:16:48.481Z,6.20
2022-12-31T19:19:17.958Z,9.05
2022-12-31T19:21:47.517Z,9.35
2022-12-31T19:24:18.817Z,7.32
2022-12-31T19:26:48.051Z,3.17
2022-12-31T19:29:21.572Z,5.57
2022-12-31T19:31:51.026Z,6.20
2022-12-31T19:34:20.575Z,4.47
2022-12-31T19:36:49.854Z,8.98
2022-12-31T19:39:20.417Z,10.38
2022-12-31T19:41:58.891Z,4.03
2022-12-31T19:44:28.862Z,5.68
2022-12-31T19:46:58.115Z,8.75
2022-12-31T19:49:27.333Z,4.43
2022-12-31T19:51:56.608Z,6.88
2022-12-31T19:54:25.929Z,5.43
2022-12-31T19:56:55.229Z,6.32
2022-12-31T19:59:24.482Z,6.18
2022-12-31T20:01:53.800Z,8.02
2022-12-31T20:04:23.177Z,6.53
2022-12-31T20:06:52.413Z,3.63
2022-12-31T20:09:21.675Z,8.82
2022-12-31T20:11:50.894Z,7.25
2022-12-31T20:14:20.221Z,4.95
2022-12-31T20:16:49.548Z,9.05
2022-12-31T20:19:18.823Z,5.90
2022-12-31T20:21:48.085Z,5.82
2022-12-31T20:24:17.326Z,4.18
2022-12-31T20:26:46.545Z,6.38
2022-12-31T20:29:15.749Z,7.65
2022-12-31T20:31:44.982Z,8.73
2022-12-31T20:34:14.430Z,11.05
2022-12-31T20:36:43.648Z,8.15
2022-12-31T20:39:12.874Z,6.25
2022-12-31T20:41:42.160Z,5.75
2022-12-31T20:44:11.721Z,9.23
2022-12-31T20:46:41.061Z,5.45
2022-12-31T20:49:10.372Z,7.40
2022-12-31T20:51:39.744Z,7.60
2022-12-31T20:54:10.160Z,8.90
2022-12-31T20:56:40.142Z,7.72
2022-12-31T20:59:09.879Z,9.20
2022-12-31T21:02:11.597Z,6.93
2022-12-31T21:04:29.104Z,12.13
2022-12-31T21:06:58.444Z,7.78
2022-12-31T21:09:27.645Z,9.48
2022-12-31T21:12:09.344Z,14.43
2022-12-31T21:14:44.379Z,9.80
2022-12-31T21:17:14.042Z,9.05
2022-12-31T21:19:43.334Z,16.38
2022-12-31T21:22:12.617Z,12.77
2022-12-31T21:24:42.008Z,9.93
2022-12-31T21:27:11.226Z,6.10
2022-12-31T21:30:01.970Z,9.40
2022-12-31T21:32:29.838Z,8.55
2022-12-31T21:35:31.529Z,7.90
2022-12-31T21:37:58.727Z,7.22
2022-12-31T21:40:30.002Z,7.20
2022-12-31T21:42:59.527Z,9.07
2022-12-31T21:45:28.826Z,13.35
2022-12-31T21:48:13.550Z,9.73
2022-12-31T21:50:42.842Z,15.40
2022-12-31T21:53:12.041Z,3.55
2022-12-31T21:55:53.911Z,4.35
2022-12-31T21:58:26.496Z,5.45
2022-12-31T22:01:09.169Z,10.05
2022-12-31T22:03:38.765Z,14.48
2022-12-31T22:06:12.276Z,10.30
2022-12-31T22:08:42.633Z,4.97
2022-12-31T22:11:12.488Z,7.88
2022-12-31T22:13:41.973Z,13.50
2022-12-31T22:16:12.745Z,6.78
2022-12-31T22:18:44.093Z,8.98
2022-12-31T22:21:18.748Z,8.63
2022-12-31T22:23:48.871Z,8.85
2022-12-31T22:26:18.966Z,10.57
2022-12-31T22:28:48.767Z,32.22
2022-12-31T22:31:19.534Z,8.07
2022-12-31T22:33:49.273Z,4.78
2022-12-31T22:36:22.781Z,4.13
2022-12-31T22:38:52.586Z,6.00
2022-12-31T22:41:22.940Z,7.72
2022-12-31T22:44:00.259Z,9.02
2022-12-31T22:46:32.482Z,6.80
2022-12-31T22:49:02.754Z,8.48
2022-12-31T22:51:57.298Z,5.50
2022-12-31T22:54:22.118Z,6.53
2022-12-31T22:56:51.474Z,3.72
2022-12-31T22:59:20.825Z,5.63
2022-12-31T23:01:50.118Z,9.57
2022-12-31T23:04:19.502Z,24.13
2022-12-31T23:06:48.788Z,28.88
2022-12-31T23:09:31.525Z,8.85
2022-12-31T23:12:00.857Z,15.13
2022-12-31T23:14:42.685Z,15.32
2022-12-31T23:17:32.037Z,13.20
2022-12-31T23:20:14.684Z,14.90
2022-12-31T23:22:56.334Z,25.98
2022-12-31T23:25:25.626Z,13.53
2022-12-31T23:27:54.862Z,15.75
2022-12-31T23:30:24.111Z,7.28
2022-12-31T23:32:53.594Z,14.23
2022-12-31T23:35:22.863Z,8.95
2022-12-31T23:37:52.199Z,13.15
2022-12-31T23:40:22.126Z,8.27
2022-12-31T23:42:52.367Z,20.25
2022-12-31T23:45:21.574Z,13.98
2022-12-31T23:47:50.826Z,13.35
2022-12-31T23:50:20.074Z,16.02
2022-12-31T23:52:49.333Z,16.73
2022-12-31T23:55:18.649Z,18.77
2022-12-31T23:57:47.894Z,13.05
